Tiempo atmosférico en la estación meteorológica de Don Benito, Badajoz (273 m.)



Fecha
DESCASC
Temp. máxima en grados centígrados (hora)
DESCASC
Temp. mínima en grados centígrados (hora)
DESCASC
Temp. media en grados centígrados
DESCASC
Racha de viento máxima en m/sg (hora)
DESCASC
Velocidad máxima media en intervalos de 10 minutos(hora)
DESCASC
Precipitaciones diarias en mm
DESCASC
Precipitaciones de 00:00 a 06:00 en mm
DESCASC
Precipitaciones de 06:00 a 12:00 en mm
DESCASC
Precipitaciones de 12:00 a 18:00 en mm
DESCASC
Precipitaciones de 18:00 a 24:00 en mm
DESCASC
02-04-2020 18.5 (19:20) 7.9 (08:20) 13.2 7.22 (02:40) 3.89 (02:40) 8.8 8.8 0 0 0
01-04-2020 15.7 (16:50) 6 (08:00) 10.8 11.94 (17:50) 5.28 (17:50) 0.8 0 0 0.8 0
31-03-2020 15.1 (15:00) 6.9 (00:00) 11 10.28 (20:20) 3.61 (00:10) 20 1.4 5.6 8.2 4.8
30-03-2020 14.5 (00:00) 8.5 (00:00) 11.5 7.5 (23:59) 3.33 (23:50) 4.6 0 0 1.8 2.8
29-03-2020 20.8 (16:20) 5.1 (00:00) 12.9 5.56 (17:30) 3.06 (15:40) 0 0 0 0 0
28-03-2020 19.1 (17:10) 4.5 (00:00) 11.8 8.06 (11:40) 3.89 (10:40) 0 0 0 0 0
27-03-2020 15.4 (16:50) 6.8 (00:00) 11.1 9.17 (19:30) 4.17 (14:20) 0 0 0 0 0
26-03-2020 21.8 (16:30) 8.9 (00:00) 15.3 13.61 (14:50) 5.28 (15:50) 0 0 0 0 0
25-03-2020 20.5 (16:50) 8.5 (00:00) 14.5 7.78 (16:30) 3.33 (03:20) 0 0 0 0 0
24-03-2020 18.6 (15:30) 11 (00:00) 14.8 15 (12:00) 5.83 (11:00) 0.2 0 0.2 0 0
23-03-2020 18.3 (15:30) 9.1 (00:00) 13.7 8.61 (17:00) 3.89 (11:30) 1.4 0.4 0 0.8 0.2
22-03-2020 17.4 (14:50) 6.5 (07:40) 11.9 10.83 (17:10) 5.28 (17:10) 1.4 0 0 0 1.4
21-03-2020 15.1 (14:30) 9 (00:00) 12.1 9.72 (16:20) 3.89 (16:20) 19.2 13.2 1.4 3.8 0.8
20-03-2020 17.2 (13:40) 11.3 (00:00) 14.3 11.11 (23:40) 5.28 (23:30) 2.8 0 0 2.6 0.2
19-03-2020 21.9 (16:50) 9.8 (00:00) 15.8 8.61 (12:30) 3.89 (09:00) 0 0 0 0 0
18-03-2020 23.1 (16:00) 12 (00:00) 17.6 12.78 (09:40) 5.83 (11:00) 0 0 0 0 0
17-03-2020 19.2 (18:30) 5.7 (00:00) 12.5 11.39 (15:00) 5.28 (14:20) 1 0.8 0.2 0 0
16-03-2020 12.7 (16:40) 3.9 (00:00) 8.3 17.22 (17:40) 7.78 (14:50) 0 0 0 0 0
15-03-2020 24.9 (15:40) 10 (00:00) 17.4 14.44 (17:20) 6.11 (23:50) 0 0 0 0 0
14-03-2020 23.8 (16:40) 10.1 (00:00) 16.9 4.44 (17:10) 2.5 (22:00) 0 0 0 0 0
13-03-2020 20.3 (17:10) 9.9 (08:10) 15.1 6.67 (17:30) 3.61 (18:20) 0 0 0 0 0
12-03-2020 28.9 (16:40) 10 (00:00) 19.4 8.33 (17:00) 4.17 (14:30) 0 0 0 0 0
11-03-2020 27.8 (15:10) 7.9 (00:00) 17.8 5.83 (16:20) 2.5 (14:50) 0 0 0 0 0
10-03-2020 26.6 (16:40) 5.9 (00:00) 16.3 3.89 (06:10) 2.5 (06:10) 0 0 0 0 0
09-03-2020 21.1 (16:10) 7.5 (00:00) 14.3 7.5 (08:00) 4.17 (08:00) 0 0 0 0 0
08-03-2020 19.6 (14:50) 2.3 (00:00) 11 8.61 (15:10) 3.89 (15:10) 0 0 0 0 0
07-03-2020 19.7 (16:00) 4.5 (00:00) 12.1 6.67 (03:00) 2.78 (01:40) 0 0 0 0 0
06-03-2020 16.9 (15:50) 7.5 (00:00) 12.2 12.22 (15:10) 6.67 (14:50) 0 0 0 0 0
05-03-2020 18.2 (15:50) 9.1 (00:00) 13.7 13.06 (11:20) 6.11 (11:00) 0 0 0 0 0

Gráficas

Temp. máximas Temp. mínimas Temp. medias Precipitaciones Rachas de viento máximas Velocidades máximas media en intervalos de 10 minutos

Datos horarios

Fecha y hora oficial Temperatura (ºC) Velocidad del viento (km/h) Dirección del viento Racha (km/h) Dirección de racha Precipitación (mm) Presión (hPa) Tendencia (hPa) Humedad (%)
2020-04-03 23:00:00 16.1 7 Este 15 Este 0 982.3 0.8 46
2020-04-03 22:00:00 16.6 4 Nordeste 9 Nordeste 0 982 0.5 38
2020-04-03 21:00:00 17.9 5 Nordeste 16 Este 0 981.7 0.1 36
2020-04-03 20:00:00 19.8 8 Nordeste 24 Nordeste 0 981.5 -0.5 32
2020-04-03 19:00:00 20.6 8 Este 22 Este 0 981.5 -1.1 34
2020-04-03 18:00:00 20.3 8 Este 20 Este 0 981.6 -1.8 35
2020-04-03 17:00:00 20.9 9 Este 22 Sudeste 0 982 -2 35
2020-04-03 16:00:00 20.7 8 Este 21 Este 0 982.6 -2 36
2020-04-03 15:00:00 20 6 Este 20 Sudeste 0 983.4 -1.5 37
2020-04-03 14:00:00 19.3 7 Este 28 Este 0 984 -0.7 42
2020-04-03 13:00:00 17.9 7 Este 19 Sudeste 0 984.6 0.3 54
2020-04-03 12:00:00 15.9 5 Este 10 Este 0 984.9 1 61
2020-04-03 11:00:00 13.6 3 Sudeste 7 Sudeste 0 984.7 1.3 68
2020-04-03 10:00:00 9.8 3 Norte 7 Noroeste 0 984.3 1.4 87
2020-04-03 09:00:00 7.4 0 Calma 10 Este 0 983.9 1.2 94
2020-04-03 08:00:00 7.2 0 Calma 8 Sudeste 0 983.4 0.9 91
2020-04-03 07:00:00 7.4 5 Sudeste 7 Sur 0 982.9 0.1 91
2020-04-03 06:00:00 8.4 3 Noroeste 6 Noroeste 0 982.7 -0.2 90
2020-04-03 05:00:00 8.8 3 Sudoeste 10 Sudoeste 0 982.5 -0.5 88
2020-04-03 04:00:00 9.5 6 Sudoeste 12 Sur 0 982.8 -0.2 84
2020-04-03 03:00:00 9.8 7 Sur 12 Sur 0 982.9 0.1 81
2020-04-03 02:00:00 10.2 4 Sur 8 Sur 0 983 0.5 79
2020-04-03 01:00:00 11 4 Sudoeste 13 Sudoeste 0 983 1.1 77
2020-04-03 00:00:00 11.6 5 Sudoeste 14 Sur 0 982.8 1.7 75
2020-04-02 23:00:00 12.5 6 Sudoeste 13 Sudoeste 0 982.5 1.7 72
2020-04-02 22:00:00 13.6 5 Oeste 12 Sudoeste 0 981.9 1.4 69
2020-04-02 21:00:00 15.3 4 Oeste 20 Sudoeste 0 981.1 0.7 60
2020-04-02 20:00:00 18.1 9 Oeste 26 Oeste 0 980.8 0.3 47
2020-04-02 19:00:00 18.2 11 Oeste 25 Oeste 0 980.5 -0.1 45
2020-04-02 18:00:00 18.2 8 Sudoeste 21 Noroeste 0 980.4 -0.6 45
2020-04-02 17:00:00 17.3 6 Norte 16 Noroeste 0 980.5 -0.5 47
2020-04-02 16:00:00 16.4 4 Noroeste 16 Sudoeste 0 980.6 -0.6 48
2020-04-02 15:00:00 14.5 6 Noroeste 16 Norte 0 981 -0.1 55
2020-04-02 14:00:00 14.2 4 Sudeste 13 Norte 0 981 0.5 57
2020-04-02 13:00:00 13 5 Nordeste 13 Este 0 981.2 1.5 62
2020-04-02 12:00:00 11 4 Norte 15 Norte 0 981.1 2.3 78
2020-04-02 11:00:00 9.5 5 Norte 13 Norte 0 980.5 2.1 88
2020-04-02 10:00:00 8.7 3 Nordeste 14 Nordeste 0 979.7 1.5 87
2020-04-02 09:00:00 8.2 5 Nordeste 15 Nordeste 0 978.8 0.7 89
2020-04-02 08:00:00 8 4 Nordeste 12 Nordeste 0 978.4 0.2 84
2020-04-02 07:00:00 8.1 3 Este 8 Sudeste 0 978.2 -0.5 86
2020-04-02 06:00:00 8.2 0 Calma 18 Nordeste 0 978.1 -0.9 88
2020-04-02 05:00:00 8.4 6 Este 19 Nordeste 1.6 978.2 -0.9 86
2020-04-02 04:00:00 9.1 8 Este 23 Este 3 978.7 -0.9 86
2020-04-02 03:00:00 9.4 10 Este 26 Sudeste 3.4 979 -0.8 90
2020-04-02 02:00:00 9.8 6 Sudeste 17 Sur 0.8 979.1 -0.7 85
2020-04-02 01:00:00 9.7 10 Sudeste 18 Sudeste 0 979.6 0.1 81
2020-04-02 00:00:00 9.2 9 Sudeste 14 Sudeste 0 979.8 0.8 83
2020-04-01 23:00:00 9.9 8 Sudeste 15 Sudeste 0 979.8 0.8 75
2020-04-01 22:00:00 10.6 4 Este 16 Sudeste 0 979.5 0.1 78
2020-04-01 21:00:00 11.4 5 Este 15 Este 0 979 -1 74
2020-04-01 20:00:00 12.9 5 Este 13 Nordeste 0 979 0 66
2020-04-01 19:00:00 12.4 4 Este 12 Sudoeste 0 979.4 -0.2 69
2020-04-01 18:00:00 11 8 Sudoeste 43 Oeste 0.8 980 -0.1 81
2020-04-01 17:00:00 15.3 3 Sudoeste 15 Noroeste 0 979 -1.3 44
2020-04-01 16:00:00 14.5 9 Noroeste 24 Oeste 0 979.6 -1.1 47
2020-04-01 15:00:00 13.7 5 Noroeste 17 Noroeste 0 980.1 -0.8 43
2020-04-01 14:00:00 14 4 Oeste 14 Sudeste 0 980.3 -0.5 47
2020-04-01 13:00:00 13 4 Noroeste 14 Sur 0 980.7 0.1 54
2020-04-01 12:00:00 12.2 8 Sudeste 16 Sudeste 0 980.9 0.9 60
2020-04-01 11:00:00 10.6 4 Sur 12 Sudoeste 0 980.8 1.5 69
2020-04-01 10:00:00 8.7 5 Sudoeste 9 Sudoeste 0 980.6 1.9 83
2020-04-01 09:00:00 6.9 3 Sur 8 Este 0 980 1.3 93
2020-04-01 08:00:00 6 3 Sudeste 8 Sudeste 0 979.3 0.5 92
2020-04-01 07:00:00 6.6 4 Sudeste 8 Sudeste 0 978.7 0.2 90
2020-04-01 06:00:00 7.7 3 Sur 6 Sudeste 0 978.7 0 90
2020-04-01 05:00:00 7.8 0 Calma 4 Oeste 0 978.8 0.2 90
2020-04-01 04:00:00 7.9 2 Sudeste 6 Oeste 0 978.5 0.2 86
2020-04-01 03:00:00 8.3 4 Oeste 13 Oeste 0 978.7 0.7 86
2020-04-01 02:00:00 8.6 6 Oeste 15 Oeste 0 978.6 1.6 84
2020-04-01 01:00:00 8.8 5 Oeste 12 Oeste 0 978.3 2.5 85
2020-04-01 00:00:00 9.2 7 Sudoeste 21 Oeste 0 978 3.3 83
2020-03-31 23:00:00 10 9 Oeste 28 Oeste 0 977 3.4 86
2020-03-31 22:00:00 12 2 Sudoeste 17 Oeste 0 975.8 3.1 84
2020-03-31 21:00:00 12.8 6 Oeste 37 Sudoeste 0 974.7 2.2 79
2020-03-31 20:00:00 12.9 11 Sudeste 17 Sudeste 1.2 973.6 1.8 86
2020-03-31 19:00:00 13.2 9 Sudeste 15 Sudeste 3.6 972.7 1 85
2020-03-31 18:00:00 13.4 5 Sur 14 Sudoeste 3.6 972.5 1.4 86
2020-03-31 17:00:00 14.6 9 Sudoeste 16 Sudoeste 0.4 971.8 0 73
2020-03-31 16:00:00 13.9 2 Sudeste 9 Oeste 2.2 971.7 -0.2 84
2020-03-31 15:00:00 15 4 Nordeste 16 Nordeste 0.6 971.1 -0.8 78
2020-03-31 14:00:00 12.7 6 Norte 12 Este 1.4 971.8 0.3 87
2020-03-31 13:00:00 13 4 Nordeste 14 Este 0 971.9 0.9 78
2020-03-31 12:00:00 10.8 5 Este 15 Nordeste 0 971.9 1.1 86
2020-03-31 11:00:00 8.8 6 Este 21 Nordeste 0.2 971.5 1.2 94
2020-03-31 10:00:00 7.5 9 Nordeste 24 Este 1.4 971 0.6 94
2020-03-31 09:00:00 7.1 9 Nordeste 22 Nordeste 1.4 970.8 0 94
2020-03-31 08:00:00 7.5 7 Nordeste 27 Nordeste 1.4 970.3 -1.1 93
2020-03-31 07:00:00 7.1 8 Nordeste 24 Nordeste 1.2 970.4 -1.6 93
2020-03-31 06:00:00 7.2 12 Nordeste 28 Nordeste 0.8 970.8 -1.9 91
2020-03-31 05:00:00 7.4 10 Este 30 Este 0.6 971.4 -2.3 89
2020-03-31 04:00:00 7.9 12 Este 31 Este 0 972 -2.9 80
2020-03-31 03:00:00 7.9 11 Nordeste 27 Nordeste 0 972.7 -2.3 80
2020-03-31 02:00:00 8.5 12 Este 27 Nordeste 0 973.7 -2 81
2020-03-31 01:00:00 8.1 10 Nordeste 32 Nordeste 0 974.9 -0.6 84
2020-03-31 00:00:00 8.5 11 Nordeste 27 Nordeste 0 975 -0.9 86
2020-03-30 23:00:00 9 11 Este 27 Nordeste 0 975.7 -0.3 89
2020-03-30 22:00:00 9.6 10 Este 25 Nordeste 0 975.5 -0.7 90
2020-03-30 21:00:00 10.3 8 Este 21 Este 0.6 975.9 -0.8 92
2020-03-30 20:00:00 10.8 9 Nordeste 23 Este 1.4 976 -0.9 90
2020-03-30 19:00:00 12 4 Este 18 Sur 0.8 976.2 -1.3 83
2020-03-30 18:00:00 12.6 4 Sur 17 Sudeste 1.2 976.7 -1.4 81
2020-03-30 17:00:00 13.6 7 Este 17 Este 0 976.9 -2.3 77
2020-03-30 16:00:00 14 2 Sudoeste 13 Noroeste 0 977.5 -2.2 71
2020-03-30 15:00:00 14 6 Norte 11 Norte 0 978.1 -2 75
2020-03-30 14:00:00 13.2 2 Norte 13 Oeste 0 979.2 -1.1 82
2020-03-30 13:00:00 12.3 3 Sudoeste 13 Sudoeste 0.6 979.7 -0.5 84
2020-03-30 12:00:00 12.9 6 Sudoeste 12 Sudoeste 0 980.1 -0.2 70
2020-03-30 11:00:00 11.6 3 Oeste 15 Sudoeste 0 980.3 0.2 77
2020-03-30 10:00:00 11.1 7 Sudoeste 17 Sudoeste 0 980.2 0.2 81
2020-03-30 09:00:00 10.5 8 Sudoeste 14 Sudoeste 0 980.3 -0.2 85
2020-03-30 08:00:00 9.9 6 Oeste 13 Sudoeste 0 980.1 -1.2 85
2020-03-30 07:00:00 10.5 6 Sudoeste 13 Sudoeste 0 980 -1.8 82
2020-03-30 06:00:00 11.3 6 Sudoeste 10 Sudoeste 0 980.5 -1.8 79
2020-03-30 05:00:00 12.4 0 Calma 11 Oeste 0 981.3 -1.5 74
2020-03-30 04:00:00 12.7 4 Noroeste 6 Noroeste 0 981.8 -1.3 71
2020-03-30 03:00:00 13.2 4 Noroeste 10 Oeste 0 982.3 -1.1 69
2020-03-30 02:00:00 13.6 5 Sudoeste 14 Sudoeste 0 982.8 -0.7 65
2020-03-30 01:00:00 13.6 8 Sudoeste 13 Sudoeste 0 983.1 -0.3 67
2020-03-30 00:00:00 14.5 7 Sudoeste 14 Oeste 0 983.4 0.3 59
2020-03-29 23:00:00 15.1 4 Oeste 10 Oeste 0 983.5 0.3 52
2020-03-29 22:00:00 16.2 4 Oeste 10 Noroeste 0 983.4 0.1 46
2020-03-29 21:00:00 17.1 4 Oeste 13 Noroeste 0 983.1 -0.4 42
2020-03-29 20:00:00 18.7 6 Noroeste 15 Noroeste 0 983.2 -0.8 34
2020-03-29 19:00:00 19.6 6 Noroeste 16 Noroeste 0 983.3 -1.3 31
2020-03-29 18:00:00 20.2 4 Noroeste 20 Noroeste 0 983.5 -1.8 27
2020-03-29 17:00:00 20.4 6 Noroeste 18 Oeste 0 984 -1.9 26
2020-03-29 16:00:00 20.1 3 Norte 19 Oeste 0 984.6 -2 27
2020-03-29 15:00:00 20.1 4 Nordeste 11 Nordeste 0 985.3 -1.6 29
2020-03-29 14:00:00 18.9 3 Norte 9 Nordeste 0 985.9 -1.2 32
2020-03-29 13:00:00 17 3 Nordeste 8 Norte 0 986.6 -0.3 34
2020-03-29 12:00:00 14.1 3 Norte 7 Nordeste 0 986.9 0.2 48
2020-03-29 11:00:00 11.8 2 Nordeste 6 Norte 0 987.1 0.8 58
2020-03-29 10:00:00 8.7 2 Norte 5 Norte 0 986.9 0.9 74
2020-03-29 09:00:00 5.4 0 Calma 10 Sur 0 986.7 0.7 81
2020-03-29 08:00:00 5.6 3 Sur 8 Sudeste 0 986.3 0.2 80
2020-03-29 07:00:00 5.7 2 Este 16 Sudoeste 0 986 -0.4 82
2020-03-29 06:00:00 7.3 4 Sudoeste 10 Sur 0 986 -0.5 77
2020-03-29 05:00:00 8.3 3 Nordeste 12 Nordeste 0 986.1 -0.5 73
2020-03-29 03:00:00 8.9 6 Sudeste 10 Sudeste 0 986.5 0.4 65
2020-03-29 01:00:00 9.1 3 Sudeste 9 Sudeste 0 986.6 0.9 63
2020-03-29 00:00:00 10.5 2 Sur 5 Sudeste 0 986.4 1.2 59
2020-03-28 23:00:00 11.9 4 Sudeste 9 Sudeste 0 986.1 1.6 51
2020-03-28 22:00:00 13.1 0 Calma 6 Nordeste 0 985.7 1.5 48
2020-03-28 21:00:00 14.5 3 Nordeste 12 Este 0 985.2 1.4 40
2020-03-28 20:00:00 16.2 6 Nordeste 14 Nordeste 0 984.5 0.8 33
2020-03-28 19:00:00 18.2 6 Nordeste 19 Nordeste 0 984.2 0.3 28
2020-03-28 18:00:00 18.7 8 Nordeste 18 Este 0 983.8 -0.6 26
2020-03-28 17:00:00 18.9 5 Nordeste 21 Nordeste 0 983.7 -1 27
2020-03-28 16:00:00 18.5 9 Sudeste 21 Sudeste 0 983.9 -1.1 28
2020-03-28 15:00:00 17.5 8 Nordeste 25 Este 0 984.4 -1 32
2020-03-28 14:00:00 16.6 10 Nordeste 24 Nordeste 0 984.7 -0.7 37
2020-03-28 13:00:00 15.2 12 Este 27 Este 0 985 -0.1 42
2020-03-28 12:00:00 13.9 10 Este 29 Este 0 985.4 0.7 48
2020-03-28 11:00:00 12.1 9 Este 27 Este 0 985.4 1.3 56
2020-03-28 10:00:00 9.8 10 Este 24 Este 0 985.1 1.7 65
2020-03-28 09:00:00 7.2 9 Este 19 Este 0 984.7 1.7 74
2020-03-28 08:00:00 5.6 5 Este 19 Este 0 984.1 1.2 79
2020-03-28 07:00:00 5.5 6 Este 19 Este 0 983.4 0.6 78
2020-03-28 06:00:00 5.6 8 Este 21 Este 0 983 0.2 78
2020-03-28 05:00:00 5.8 8 Este 20 Este 0 982.9 0.1 76
2020-03-28 04:00:00 5.2 2 Sudeste 14 Sudeste 0 982.8 0.2 76
2020-03-28 03:00:00 5.9 5 Este 10 Este 0 982.8 0.4 76
2020-03-28 02:00:00 6.4 2 Este 16 Este 0 982.8 0.9 73
2020-03-28 01:00:00 7.4 6 Este 19 Sudeste 0 982.6 1.1 68
2020-03-28 00:00:00 8.1 7 Este 19 Sudeste 0 982.4 1.7 63
2020-03-27 23:00:00 9 6 Este 26 Este 0 981.9 2.2 59
2020-03-27 22:00:00 9.7 10 Este 23 Este 0 981.5 2.5 56
2020-03-27 21:00:00 10.7 10 Este 22 Este 0 980.7 2.3 54
2020-03-27 20:00:00 11.9 10 Este 33 Este 0 979.7 1.6 50
2020-03-27 19:00:00 14.3 12 Este 26 Este 0 979 0.9 39
2020-03-27 18:00:00 14.2 10 Nordeste 24 Sudeste 0 978.4 0.1 43
2020-03-27 17:00:00 14.4 13 Este 28 Sudeste 0 978.1 -0.5 43
2020-03-27 16:00:00 13.8 9 Este 28 Este 0 978.1 -0.6 49
2020-03-27 15:00:00 13.9 12 Este 26 Este 0 978.3 -0.5 56
2020-03-27 14:00:00 11.9 9 Este 24 Este 0 978.6 0.2 66
2020-03-27 13:00:00 10.9 6 Este 14 Este 0 978.7 1 71
2020-03-27 12:00:00 9.2 3 Oeste 9 Sudeste 0 978.8 1.9 75
2020-03-27 11:00:00 8.4 4 Este 9 Sudoeste 0 978.4 1.7 80
2020-03-27 10:00:00 8.2 2 Sudoeste 13 Sudoeste 0 977.7 1.5 82
2020-03-27 09:00:00 7.7 8 Sudoeste 15 Sudoeste 0 976.9 1.1 87
2020-03-27 08:00:00 7.6 8 Sudoeste 15 Sudoeste 0 976.7 1.3 89
2020-03-27 07:00:00 7.5 7 Sudoeste 19 Sudoeste 0 976.2 0.3 91
2020-03-27 06:00:00 7.3 8 Oeste 19 Oeste 0 975.8 -0.6 92
2020-03-27 05:00:00 7 10 Sudoeste 22 Sudoeste 0 975.4 -1.5 90
2020-03-27 04:00:00 7.6 8 Sudoeste 18 Sudoeste 0 975.9 -1.3 87
2020-03-27 03:00:00 8.3 9 Sudoeste 22 Oeste 0 976.4 -0.6 84
2020-03-27 02:00:00 9.3 10 Sudoeste 24 Sudoeste 0 976.9 -0.1 81
2020-03-27 01:00:00 10.4 10 Oeste 26 Sudoeste 0 977.2 0.3 76
2020-03-27 00:00:00 11.4 13 Sudoeste 29 Sudoeste 0 977 0.4 72
2020-03-26 23:00:00 12 10 Sudoeste 24 Oeste 0 977 0.8 69
2020-03-26 22:00:00 13.7 10 Oeste 33 Sudoeste 0 976.9 1 61
2020-03-26 21:00:00 15 12 Oeste 28 Oeste 0 976.6 1 55
2020-03-26 20:00:00 16.7 12 Oeste 35 Oeste 0 976.2 0.3 49
2020-03-26 19:00:00 19.1 14 Oeste 39 Oeste 0 975.9 -0.6 41
2020-03-26 18:00:00 20.8 12 Oeste 40 Oeste 0 975.6 -1.3 37
2020-03-26 17:00:00 21.2 13 Oeste 38 Noroeste 0 975.9 -1.6 33
2020-03-26 16:00:00 21 17 Noroeste 48 Sudoeste 0 976.5 -1.8 23
2020-03-26 15:00:00 21.1 18 Oeste 49 Oeste 0 976.9 -2.1 33
2020-03-26 14:00:00 20 14 Oeste 34 Sudoeste 0 977.5 -2.1 40
2020-03-26 13:00:00 18.1 15 Oeste 31 Oeste 0 978.3 -1.6 51
2020-03-26 12:00:00 16.6 14 Sudoeste 32 Sudoeste 0 979 -0.8 56
2020-03-26 11:00:00 13.5 15 Oeste 31 Oeste 0 979.6 0 71
2020-03-26 10:00:00 11.2 15 Sudoeste 32 Sudoeste 0 979.9 0.6 81
2020-03-26 09:00:00 9.3 13 Oeste 29 Sudoeste 0 979.8 0.7 92
2020-03-26 08:00:00 9 12 Oeste 29 Sudoeste 0 979.6 0.4 92
2020-03-26 07:00:00 9.4 13 Sudoeste 25 Sudoeste 0 979.3 -0.5 91
2020-03-26 06:00:00 10.3 11 Oeste 22 Oeste 0 979.1 -1.4 88
2020-03-26 05:00:00 11.1 10 Oeste 21 Oeste 0 979.2 -1.8 86
2020-03-26 04:00:00 12 10 Oeste 21 Oeste 0 979.8 -1.5 87
2020-03-26 03:00:00 12.6 6 Sudoeste 17 Oeste 0 980.5 -1 86
2020-03-26 02:00:00 13.3 8 Oeste 15 Oeste 0 981 -0.6 81
2020-03-26 01:00:00 14 6 Sudoeste 14 Sudoeste 0 981.3 -0.4 71
2020-03-26 00:00:00 14.6 6 Sudeste 16 Nordeste 0 981.5 0 62
2020-03-25 23:00:00 14.2 4 Oeste 13 Oeste 0 981.6 0.4 63
2020-03-25 22:00:00 14.4 7 Sudoeste 13 Sudoeste 0 981.7 0.4 62
2020-03-25 21:00:00 14.9 7 Sudoeste 13 Sudoeste 0 981.5 0.3 60
2020-03-25 20:00:00 17.4 7 Oeste 22 Oeste 0 981.2 -0.4 49
2020-03-25 19:00:00 19.4 10 Oeste 27 Noroeste 0 981.3 -1 40
2020-03-25 18:00:00 20.2 8 Oeste 23 Noroeste 0 981.2 -1.6 38
2020-03-25 17:00:00 20.1 10 Oeste 28 Noroeste 0 981.6 -2 38
2020-03-25 16:00:00 19.7 11 Noroeste 25 Noroeste 0 982.3 -2 37
2020-03-25 15:00:00 19.6 9 Noroeste 19 Oeste 0 982.8 -2 38
2020-03-25 14:00:00 18.9 6 Oeste 16 Noroeste 0 983.6 -1.1 39
2020-03-25 13:00:00 18.1 3 Oeste 15 Noroeste 0 984.3 -0.3 42
2020-03-25 12:00:00 15.7 5 Norte 12 Nordeste 0 984.8 0.6 50
2020-03-25 11:00:00 15 4 Este 22 Sudeste 0 984.7 0.4 49
2020-03-25 10:00:00 12.9 9 Este 19 Este 0 984.6 0.8 56
2020-03-25 09:00:00 11.3 5 Este 16 Sudeste 0 984.2 0.5 64
2020-03-25 08:00:00 9.6 4 Este 12 Sudeste 0 984.3 0.8 75
2020-03-25 07:00:00 9.6 3 Este 17 Este 0 983.8 0.2 74
2020-03-25 06:00:00 9 5 Nordeste 12 Nordeste 0 983.7 0 79
2020-03-25 05:00:00 9.1 5 Este 15 Este 0 983.5 -0.2 80
2020-03-25 04:00:00 10.1 9 Nordeste 21 Nordeste 0 983.6 0.1 74
2020-03-25 03:00:00 9.6 8 Nordeste 20 Este 0 983.7 0.3 76
2020-03-25 02:00:00 9.9 7 Nordeste 18 Nordeste 0 983.7 0.4 75
2020-03-25 01:00:00 11 9 Nordeste 17 Este 0 983.5 0.9 70
2020-03-25 00:00:00 11.6 6 Este 17 Este 0 983.4 1.3 67
2020-03-24 23:00:00 12.3 7 Este 29 Este 0 983.3 2.1 63
2020-03-24 22:00:00 13.2 11 Este 30 Este 0 982.6 2.2 59
2020-03-24 21:00:00 14.1 12 Este 27 Este 0 982.1 2.2 58
2020-03-24 20:00:00 15.6 8 Este 32 Este 0 981.2 1.6 52
2020-03-24 19:00:00 16.5 12 Nordeste 39 Nordeste 0 980.4 0.8 49
2020-03-24 18:00:00 17.3 18 Nordeste 41 Este 0 979.9 0.1 46
2020-03-24 17:00:00 17.6 14 Este 45 Nordeste 0 979.6 -0.4 46
2020-03-24 16:00:00 17.4 18 Este 46 Nordeste 0 979.6 -0.7 47
2020-03-24 15:00:00 17.2 19 Este 48 Este 0 979.8 -0.6 48
2020-03-24 14:00:00 18 19 Este 52 Este 0 980 -0.3 46
2020-03-24 13:00:00 17.6 18 Este 48 Este 0 980.3 0.3 50
2020-03-24 12:00:00 17 21 Este 54 Nordeste 0 980.4 0.5 46
2020-03-24 11:00:00 16.7 21 Este 46 Este 0.2 980.3 0.3 48
2020-03-24 10:00:00 15.3 15 Nordeste 31 Nordeste 0 980 0.2 61
2020-03-24 09:00:00 13.4 13 Nordeste 27 Nordeste 0 979.9 0.3 68
2020-03-24 08:00:00 11.5 10 Nordeste 23 Nordeste 0 980 0.3 76
2020-03-24 07:00:00 11.4 9 Nordeste 16 Nordeste 0 979.8 -0.4 75
2020-03-24 06:00:00 11.1 6 Nordeste 19 Nordeste 0 979.6 -0.8 80
2020-03-24 05:00:00 11.6 6 Nordeste 15 Nordeste 0 979.7 -0.9 80
2020-03-24 04:00:00 11.6 6 Nordeste 25 Nordeste 0 980.2 -0.9 81
2020-03-24 03:00:00 11.8 10 Nordeste 19 Nordeste 0 980.4 -0.9 81
2020-03-24 02:00:00 11.9 4 Nordeste 23 Nordeste 0 980.6 -0.3 85
2020-03-24 01:00:00 12.1 6 Nordeste 16 Sudeste 0 981.1 0.5 76
2020-03-24 00:00:00 12.3 8 Sudeste 17 Este 0 981.3 1.4 72
2020-03-23 23:00:00 12.9 7 Este 17 Este 0 980.9 1.4 66
2020-03-23 22:00:00 13.2 6 Este 28 Nordeste 0.2 980.6 1.4 66
2020-03-23 21:00:00 13.7 6 Nordeste 10 Nordeste 0 979.9 0.7 62
2020-03-23 20:00:00 14 2 Oeste 4 Noroeste 0 979.5 0.2 63
2020-03-23 19:00:00 15.2 3 Noroeste 14 Nordeste 0 979.2 -0.3 55
2020-03-23 18:00:00 15.1 7 Nordeste 20 Nordeste 0 979.2 -0.7 52
2020-03-23 17:00:00 15.4 11 Este 31 Sudeste 0.2 979.3 -1.5 61
2020-03-23 16:00:00 14.8 12 Este 26 Este 0.6 979.5 -1.9 59
2020-03-23 15:00:00 17.5 9 Nordeste 25 Este 0 979.9 -1.8 44
2020-03-23 14:00:00 16.8 9 Este 24 Nordeste 0 980.8 -1.2 45
2020-03-23 13:00:00 16.1 8 Nordeste 28 Este 0 981.4 -0.5 53
2020-03-23 12:00:00 15.3 12 Este 29 Sudeste 0 981.7 0.1 55
2020-03-23 11:00:00 13.9 10 Este 23 Nordeste 0 982 0.7 66
2020-03-23 10:00:00 12.9 8 Este 20 Este 0 981.9 1.1 74
2020-03-23 09:00:00 11.3 4 Este 10 Este 0 981.6 1.2 86
2020-03-23 08:00:00 9.2 3 Este 9 Nordeste 0 981.3 1.1 95
2020-03-23 07:00:00 9.3 3 Este 9 Norte 0 980.8 0.7 95
2020-03-23 06:00:00 9.6 3 Nordeste 8 Este 0 980.4 0.2 94
2020-03-23 05:00:00 10.2 4 Este 16 Este 0 980.2 -0.2 94
2020-03-23 04:00:00 10.1 2 Sudeste 16 Este 0 980.1 -0.5 94
2020-03-23 03:00:00 10.7 4 Sudeste 15 Este 0.4 980.2 -0.6 92
2020-03-23 02:00:00 10.8 4 Este 8 Este 0 980.4 -0.5 92
2020-03-23 01:00:00 10.8 0 Calma 5 Nordeste 0 980.6 0 91
2020-03-23 00:00:00 10.8 3 Noroeste 8 Sudeste 0 980.8 0.5 92
2020-03-22 23:00:00 10.9 4 Sudeste 10 Sudeste 0 980.9 1.5 90
2020-03-22 22:00:00 11.1 8 Sudeste 19 Nordeste 1.4 980.6 1.4 87
2020-03-22 21:00:00 12 4 Norte 9 Norte 0 980.3 1.7 81
2020-03-22 20:00:00 12.3 2 Oeste 6 Nordeste 0 979.4 1 76
2020-03-22 19:00:00 13 4 Norte 15 Norte 0 979.2 1.1 68
2020-03-22 18:00:00 13.5 7 Nordeste 39 Nordeste 0 978.6 0.1 63
2020-03-22 17:00:00 15.5 9 Nordeste 26 Nordeste 0 978.4 -0.7 55
2020-03-22 16:00:00 16.9 5 Oeste 15 Nordeste 0 978.1 -1.7 40
2020-03-22 15:00:00 16.6 6 Noroeste 17 Noroeste 0 978.5 -1.5 46
2020-03-22 14:00:00 16.2 5 Este 14 Nordeste 0 979.1 -0.9 43
2020-03-22 13:00:00 15.4 5 Nordeste 15 Este 0 979.8 0 47
2020-03-22 12:00:00 13.9 5 Este 21 Este 0 980 0.6 56
2020-03-22 11:00:00 12.5 6 Nordeste 18 Este 0 980 0.8 64
2020-03-22 10:00:00 11 5 Este 17 Nordeste 0 979.8 1.3 73
2020-03-22 09:00:00 8.6 5 Nordeste 12 Nordeste 0 979.4 1.1 83
2020-03-22 08:00:00 6.8 5 Este 10 Sudeste 0 979.2 1.1 89
2020-03-22 07:00:00 7.4 4 Este 14 Sudeste 0 978.5 0.5 85
2020-03-22 06:00:00 8.1 6 Este 19 Este 0 978.3 0 84
2020-03-22 05:00:00 8.9 6 Este 18 Este 0 978.1 -0.2 86
2020-03-22 04:00:00 8.9 4 Este 9 Este 0 978 -0.4 85
2020-03-22 03:00:00 8.9 5 Este 15 Este 0 978.3 -0.3 86
2020-03-22 02:00:00 9.1 9 Sudeste 14 Sudeste 0 978.3 -0.2 85
2020-03-22 01:00:00 9 6 Sudeste 12 Sudeste 0 978.4 0 84
2020-03-22 00:00:00 9.1 5 Sudeste 15 Sudeste 0 978.6 0.6 82
2020-03-21 23:00:00 10 5 Sudeste 16 Este 0 978.5 0.8 87
2020-03-21 22:00:00 9.9 7 Este 15 Este 0 978.4 0.8 87
2020-03-21 21:00:00 10.2 6 Este 19 Este 0.2 978 1 86
2020-03-21 20:00:00 10.3 6 Este 21 Sudeste 0.6 977.7 0.7 83
2020-03-21 19:00:00 10.8 7 Sudeste 25 Sudeste 0 977.6 0.6 78
2020-03-21 18:00:00 12.1 9 Sudeste 30 Nordeste 0.8 977 -0.7 73
2020-03-21 17:00:00 11.5 9 Este 35 Sudeste 3 977 -1.7 74
2020-03-21 16:00:00 14.4 7 Nordeste 22 Nordeste 0 977 -2.5 55
2020-03-21 15:00:00 14.6 10 Nordeste 25 Nordeste 0 977.7 -2.4 54
2020-03-21 14:00:00 14.6 7 Nordeste 20 Nordeste 0 978.7 -1.5 57
2020-03-21 13:00:00 13.4 5 Nordeste 12 Norte 0 979.5 -0.9 58
2020-03-21 12:00:00 13 3 Sur 12 Oeste 0 980.1 0.3 59
2020-03-21 11:00:00 13.1 6 Sur 17 Sudoeste 0.2 980.2 0.5 64
2020-03-21 10:00:00 10.4 11 Sudoeste 19 Sur 0 980.4 1.4 79
2020-03-21 09:00:00 9.5 4 Sudeste 11 Sudeste 0 979.8 1.2 91
2020-03-21 08:00:00 9.1 6 Sudeste 17 Sudeste 0.6 979.7 0.7 91
2020-03-21 07:00:00 9.4 5 Sudeste 15 Sudeste 0.6 979 0.3 89
2020-03-21 06:00:00 9.9 3 Este 18 Sudoeste 2.2 978.6 -0.5 93
2020-03-21 05:00:00 10.3 8 Oeste 19 Oeste 3.6 979 -0.3 95
2020-03-21 04:00:00 10.3 3 Noroeste 18 Oeste 4.2 978.7 -1.1 94
2020-03-21 03:00:00 10.7 4 Noroeste 10 Oeste 2.2 979.1 -1 93
2020-03-21 02:00:00 10.8 2 Nordeste 13 Sudeste 0.6 979.3 0.3 92
2020-03-21 01:00:00 11 2 Oeste 21 Noroeste 0.4 979.8 0.8 90
2020-03-21 00:00:00 11.3 8 Oeste 40 Oeste 0 980.1 0.8 86
2020-03-20 23:00:00 13 6 Sudeste 13 Este 0 979 -0.2 91
2020-03-20 22:00:00 13.5 6 Sudeste 12 Este 0 979 -0.5 91
2020-03-20 21:00:00 13.8 3 Nordeste 5 Nordeste 0 979.3 -0.4 90
2020-03-20 20:00:00 14.3 4 Nordeste 8 Noroeste 0 979.2 -1.1 87
2020-03-20 19:00:00 14.8 3 Noroeste 7 Noroeste 0.2 979.5 -0.8 86
2020-03-20 18:00:00 14.9 0 Calma 13 Sur 1.6 979.7 -1 85
2020-03-20 17:00:00 15.8 5 Sudoeste 9 Sudoeste 0.4 980.3 -1.2 75
2020-03-20 16:00:00 15.8 5 Nordeste 14 Norte 0.6 980.3 -1.7 76
2020-03-20 15:00:00 17.1 5 Noroeste 13 Noroeste 0 980.7 -1.9 60
2020-03-20 14:00:00 16.8 6 Noroeste 18 Sudoeste 0 981.5 -1 58
2020-03-20 13:00:00 16.7 11 Sudoeste 26 Sur 0 982 -0.4 55
2020-03-20 12:00:00 16.1 8 Sur 18 Sudeste 0 982.6 0.7 60
2020-03-20 11:00:00 16.2 5 Sudeste 12 Sudeste 0 982.5 1.1 64
2020-03-20 10:00:00 15 3 Sur 12 Sur 0 982.4 1.1 69
2020-03-20 09:00:00 13.3 6 Este 15 Este 0 981.9 0.9 80
2020-03-20 08:00:00 13.1 7 Este 18 Este 0 981.4 0.3 81
2020-03-20 07:00:00 13.5 9 Este 23 Este 0 981.3 0 77
2020-03-20 06:00:00 14.1 8 Este 21 Sudeste 0 981 -0.7 70
2020-03-20 05:00:00 13.9 6 Este 11 Este 0 981.1 -1 72
2020-03-20 04:00:00 14.2 5 Nordeste 15 Este 0 981.3 -0.7 68
2020-03-20 03:00:00 14.7 4 Este 15 Este 0 981.7 -0.5 61
2020-03-20 02:00:00 15.1 8 Este 21 Este 0 982.1 -0.1 59
2020-03-20 01:00:00 15.1 4 Este 13 Nordeste 0 982 -0.2 59
2020-03-20 00:00:00 14.8 4 Nordeste 8 Nordeste 0 982.2 -0.1 61
2020-03-19 23:00:00 15.4 2 Sur 12 Este 0 982.2 0 56
2020-03-19 22:00:00 16.1 6 Sudeste 13 Sudeste 0 982.2 0.1 53
2020-03-19 21:00:00 18.1 6 Este 12 Este 0 982.3 0.2 46
2020-03-19 20:00:00 19 4 Este 17 Este 0 982.2 -0.2 42
2020-03-19 19:00:00 20 8 Sudeste 21 Este 0 982.1 -0.8 37
2020-03-19 18:00:00 20.8 12 Este 21 Sudeste 0 982.1 -1.5 34
2020-03-19 17:00:00 21.6 9 Este 25 Este 0 982.4 -2.5 31
2020-03-19 16:00:00 21.6 8 Este 28 Este 0 982.9 -2.9 33
2020-03-19 15:00:00 21 9 Este 22 Este 0 983.6 -3 34
2020-03-19 14:00:00 20.2 8 Este 26 Sudeste 0 984.9 -2.3 35
2020-03-19 13:00:00 18.7 10 Nordeste 31 Nordeste 0 985.8 -1.5 41
2020-03-19 12:00:00 17 12 Este 26 Nordeste 0 986.6 -0.7 47
2020-03-19 11:00:00 15.7 10 Este 27 Este 0 987.2 0 49
2020-03-19 10:00:00 13.3 12 Este 27 Este 0 987.3 -0.1 55
2020-03-19 09:00:00 11 14 Este 26 Sudeste 0 987.3 -0.1 59
2020-03-19 08:00:00 10.7 10 Este 26 Este 0 987.2 -0.2 59
2020-03-19 07:00:00 10.7 7 Este 12 Este 0 987.4 0.1 62
2020-03-19 06:00:00 11.1 4 Este 10 Nordeste 0 987.4 0 61
2020-03-19 05:00:00 11.7 0 Calma 21 Este 0 987.4 -0.1 59
2020-03-19 04:00:00 12.9 8 Este 21 Este 0 987.3 -0.3 52
2020-03-19 03:00:00 13.8 8 Este 19 Este 0 987.4 -0.4 50
2020-03-19 02:00:00 14.2 6 Este 14 Nordeste 0 987.5 -0.5 52
2020-03-19 01:00:00 15.2 5 Nordeste 26 Este 0 987.6 -0.2 49
2020-03-19 00:00:00 16.2 11 Este 24 Este 0 987.8 0.2 47
2020-03-18 23:00:00 16.4 11 Este 30 Este 0 988 0.8 47
2020-03-18 22:00:00 16.9 15 Este 36 Este 0 987.8 1 47
2020-03-18 21:00:00 17.2 8 Este 21 Sudeste 0 987.6 1.2 50
2020-03-18 20:00:00 18.1 9 Nordeste 27 Nordeste 0 987.2 0.6 49
2020-03-18 19:00:00 19.3 13 Nordeste 36 Nordeste 0 986.8 0 45
2020-03-18 18:00:00 21.2 14 Este 35 Este 0 986.4 -0.8 35
2020-03-18 17:00:00 22.1 17 Este 37 Nordeste 0 986.6 -1.5 34
2020-03-18 16:00:00 23 14 Este 37 Nordeste 0 986.8 -2.2 31
2020-03-18 15:00:00 22.6 14 Este 36 Nordeste 0 987.2 -2.3 31
2020-03-18 14:00:00 21.6 16 Este 43 Nordeste 0 988.1 -1.8 33
2020-03-18 13:00:00 20.2 15 Este 35 Este 0 989 -0.5 35
2020-03-18 12:00:00 18.6 16 Este 39 Este 0 989.5 0 41
2020-03-18 11:00:00 16.5 21 Este 46 Sudeste 0 989.9 0.5 49
2020-03-18 10:00:00 15.5 20 Este 46 Este 0 989.5 0.7 52
2020-03-18 09:00:00 13 12 Nordeste 26 Nordeste 0 989.5 0.5 63
2020-03-18 08:00:00 12 12 Nordeste 35 Nordeste 0 989.4 0.6 67
2020-03-18 07:00:00 12.7 13 Este 35 Nordeste 0 988.8 0.1 64
2020-03-18 06:00:00 13.2 13 Nordeste 34 Nordeste 0 989 -0.1 62
2020-03-18 05:00:00 13.9 14 Nordeste 39 Este 0 988.8 -0.1 59
2020-03-18 04:00:00 14.6 15 Nordeste 38 Nordeste 0 988.7 0.3 59
2020-03-18 03:00:00 15 15 Este 34 Nordeste 0 989.1 0.2 64
2020-03-18 02:00:00 14.6 11 Este 34 Nordeste 0 988.9 -0.5 67
2020-03-18 01:00:00 14.7 17 Nordeste 33 Nordeste 0 988.4 -1.1 67
2020-03-18 00:00:00 15.6 15 Este 39 Este 0 988.9 -0.4 62
2020-03-17 23:00:00 15 13 Nordeste 28 Este 0 989.4 0.9 58
2020-03-17 22:00:00 15.2 7 Nordeste 14 Nordeste 0 989.5 1.4 44
2020-03-17 21:00:00 16.1 6 Nordeste 12 Nordeste 0 989.3 1.4 38
2020-03-17 20:00:00 16.8 5 Este 26 Nordeste 0 988.5 0.5 34
2020-03-17 19:00:00 18.5 13 Este 28 Este 0 988.1 0.1 30
2020-03-17 18:00:00 18.4 10 Este 27 Nordeste 0 987.9 -0.3 28
2020-03-17 17:00:00 17.8 17 Este 37 Este 0 988 -0.7 27
2020-03-17 16:00:00 18.3 15 Este 34 Sudeste 0 988 -1 29
2020-03-17 15:00:00 17.3 18 Este 41 Este 0 988.2 -1 30
2020-03-17 14:00:00 17.1 14 Este 39 Sudeste 0 988.7 -0.1 34
2020-03-17 13:00:00 15.5 15 Este 34 Sudeste 0 989 0.7 39
2020-03-17 12:00:00 13.9 15 Este 34 Este 0 989.2 1.4 45
2020-03-17 11:00:00 11.9 14 Este 35 Nordeste 0 988.8 1.8 54
2020-03-17 10:00:00 10.5 14 Este 33 Este 0 988.3 1.9 58
2020-03-17 09:00:00 7.6 12 Nordeste 23 Nordeste 0 987.8 2.1 75
2020-03-17 08:00:00 6.6 6 Nordeste 15 Nordeste 0 987 1.9 84
2020-03-17 07:00:00 6.9 4 Este 17 Sudeste 0.2 986.4 1.5 87
2020-03-17 06:00:00 7.1 9 Este 29 Este 0.8 985.7 0.8 85
2020-03-17 05:00:00 7.3 10 Este 23 Este 0 985.1 0.4 79
2020-03-17 04:00:00 6.9 10 Nordeste 23 Nordeste 0 984.9 0.3 76
2020-03-17 03:00:00 6.7 11 Nordeste 23 Nordeste 0 984.9 0.4 74
2020-03-17 02:00:00 6.3 6 Nordeste 19 Nordeste 0 984.7 0.4 74
2020-03-17 01:00:00 6.3 9 Nordeste 18 Nordeste 0 984.6 0.9 76
2020-03-17 00:00:00 6.3 5 Nordeste 14 Nordeste 0 984.5 1.2 74
2020-03-16 23:00:00 6.5 7 Nordeste 15 Nordeste 0 984.3 1.7 73
2020-03-16 22:00:00 6.4 4 Norte 17 Norte 0 983.7 1.6 75
2020-03-16 21:00:00 7.1 8 Norte 27 Norte 0 983.3 1.6 72
2020-03-16 20:00:00 8 12 Norte 38 Norte 0 982.6 1.4 68
2020-03-16 19:00:00 8.7 19 Norte 54 Norte 0 982.1 1 61
2020-03-16 18:00:00 10.2 22 Norte 62 Norte 0 981.7 0.4 51
2020-03-16 17:00:00 11.8 17 Noroeste 52 Noroeste 0 981.2 -0.3 45
2020-03-16 16:00:00 11.5 19 Noroeste 52 Noroeste 0 981.1 -0.8 44
2020-03-16 15:00:00 11.4 18 Norte 60 Norte 0 981.3 -0.8 44
2020-03-16 14:00:00 10.4 21 Noroeste 49 Noroeste 0 981.5 -1.2 51
2020-03-16 13:00:00 10.8 21 Noroeste 44 Noroeste 0 981.9 -0.7 45
2020-03-16 12:00:00 10.4 17 Noroeste 42 Noroeste 0 982.1 -0.7 49
2020-03-16 11:00:00 9.7 17 Noroeste 37 Noroeste 0 982.7 0.3 49
2020-03-16 10:00:00 8.2 12 Oeste 30 Oeste 0 982.6 0.7 58
2020-03-16 09:00:00 6.1 13 Sudoeste 23 Oeste 0 982.8 0.7 73
2020-03-16 08:00:00 4 10 Sudoeste 22 Oeste 0 982.4 0.4 80
2020-03-16 07:00:00 4.1 12 Oeste 23 Oeste 0 981.9 -0.1 78
2020-03-16 06:00:00 4.3 5 Oeste 18 Oeste 0 982.1 -0.3 75
2020-03-16 05:00:00 4.9 9 Oeste 30 Oeste 0 982 -0.6 72
2020-03-16 04:00:00 5.8 12 Oeste 28 Oeste 0 982 -0.6 66
2020-03-16 03:00:00 7 10 Oeste 26 Oeste 0 982.4 -0.4 57
2020-03-16 02:00:00 7.6 8 Oeste 30 Oeste 0 982.6 0.4 59
2020-03-16 01:00:00 9.1 11 Oeste 41 Oeste 0 982.6 1 56
2020-03-16 00:00:00 11.1 18 Noroeste 42 Noroeste 0 982.8 1.8 55
2020-03-15 23:00:00 13 11 Oeste 42 Noroeste 0 982.2 2 59
2020-03-15 22:00:00 14.8 15 Oeste 40 Noroeste 0 981.6 2.5 49
2020-03-15 21:00:00 15.9 10 Oeste 43 Oeste 0 981 1.6 49
2020-03-15 20:00:00 16.1 12 Oeste 42 Oeste 0 980.2 0.7 57
2020-03-15 19:00:00 18.4 15 Oeste 43 Oeste 0 979.1 -0.5 53
2020-03-15 18:00:00 20.9 15 Oeste 52 Noroeste 0 979.4 -0.8 47
2020-03-15 17:00:00 22.6 15 Oeste 37 Noroeste 0 979.5 -1.9 41
2020-03-15 16:00:00 23.7 12 Oeste 36 Noroeste 0 979.6 -3 39
2020-03-15 15:00:00 24.3 10 Sudoeste 32 Oeste 0 980.2 -3.2 36
2020-03-15 14:00:00 23.3 11 Oeste 27 Oeste 0 981.4 -2.5 39
2020-03-15 13:00:00 21.9 9 Oeste 20 Oeste 0 982.6 -1.5 44
2020-03-15 12:00:00 19.6 4 Oeste 10 Noroeste 0 983.4 -0.4 51
2020-03-15 11:00:00 17.2 3 Nordeste 12 Norte 0 983.9 0.6 61
2020-03-15 10:00:00 13.5 5 Norte 11 Norte 0 984.1 0.9 75
2020-03-15 09:00:00 11.9 2 Norte 8 Sudeste 0 983.8 0.6 77
2020-03-15 08:00:00 10.3 3 Sudeste 8 Sudeste 0 983.3 0.2 84
2020-03-15 07:00:00 10.6 3 Sudeste 12 Sur 0 983.2 -0.3 84
2020-03-15 06:00:00 10.2 7 Sur 10 Sur 0 983.2 -0.7 84
2020-03-15 05:00:00 11 3 Sur 10 Este 0 983.1 -1.1 78
2020-03-15 04:00:00 12 4 Norte 6 Norte 0 983.5 -1 76
2020-03-15 03:00:00 12.2 2 Nordeste 4 Sur 0 983.9 -0.8 76
2020-03-15 02:00:00 13 2 Sudeste 6 Sudeste 0 984.2 -0.7 73
2020-03-15 01:00:00 13.9 5 Sudeste 10 Sudeste 0 984.5 -0.2 68
2020-03-15 00:00:00 14.3 3 Sur 11 Sur 0 984.7 0.1 66
2020-03-14 23:00:00 15.1 6 Sur 11 Sudeste 0 984.9 0.4 62
2020-03-14 22:00:00 15.8 9 Sur 11 Sudeste 0 984.7 0.4 59
2020-03-14 21:00:00 17.7 2 Sur 7 Sur 0 984.6 0.2 54
2020-03-14 20:00:00 19.9 3 Norte 9 Norte 0 984.5 0 47
2020-03-14 19:00:00 22.1 5 Noroeste 12 Noroeste 0 984.3 -0.7 41
2020-03-14 18:00:00 22.8 6 Noroeste 16 Norte 0 984.4 -1.2 34
2020-03-14 17:00:00 23.1 6 Oeste 12 Noroeste 0 984.5 -2 39
2020-03-14 16:00:00 22.7 9 Noroeste 14 Noroeste 0 985 -2.2 44
2020-03-14 15:00:00 22.4 5 Nordeste 14 Noroeste 0 985.6 -2.2 47
2020-03-14 14:00:00 21.2 5 Norte 13 Norte 0 986.5 -1.6 55
2020-03-14 13:00:00 18.5 5 Norte 13 Norte 0 987.2 -0.8 65
2020-03-14 12:00:00 16.2 4 Norte 10 Nordeste 0 987.8 0.4 77
2020-03-14 11:00:00 13.6 2 Norte 6 Noroeste 0 988.1 1.2 94
2020-03-14 10:00:00 11.7 0 Calma 12 Sudeste 0 988 1.4 97
2020-03-14 09:00:00 10.7 4 Sudeste 11 Sudeste 0 987.4 1.5 97
2020-03-14 08:00:00 10.4 3 Sudoeste 8 Noroeste 0 986.9 1.3 96
2020-03-14 07:00:00 10.3 3 Norte 9 Oeste 0 986.6 0.8 94
2020-03-14 06:00:00 10.5 5 Oeste 11 Oeste 0 985.9 -0.3 93
2020-03-14 05:00:00 10.8 4 Sudoeste 8 Sudoeste 0 985.6 -0.5 92
2020-03-14 04:00:00 11.1 3 Sudoeste 13 Sudoeste 0 985.8 -0.4 90
2020-03-14 03:00:00 11.2 8 Sudoeste 14 Sudoeste 0 986.2 0 90
2020-03-14 02:00:00 11.8 9 Sudoeste 15 Sudoeste 0 986.1 -0.1 89
2020-03-14 01:00:00 12.1 6 Sudoeste 12 Sudoeste 0 986.2 0.3 88
2020-03-14 00:00:00 12.3 7 Sudoeste 12 Sudoeste 0 986.2 0.8 86
2020-03-13 23:00:00 13 6 Sudoeste 14 Sudoeste 0 986.2 1.3 84
2020-03-13 22:00:00 14.2 9 Sudoeste 15 Sudoeste 0 985.9 1.3 81
2020-03-13 21:00:00 14.8 6 Sudoeste 13 Oeste 0 985.4 1.1 76
2020-03-13 20:00:00 16.2 6 Sudoeste 17 Oeste 0 984.9 0.5 70
2020-03-13 19:00:00 18.4 12 Sudoeste 23 Oeste 0 984.6 0.1 61
2020-03-13 18:00:00 19.5 12 Oeste 24 Sudoeste 0 984.3 -0.6 56
2020-03-13 17:00:00 20.1 10 Oeste 23 Oeste 0 984.4 -1.5 54
2020-03-13 16:00:00 19.6 10 Oeste 22 Oeste 0 984.5 -2.1 56
2020-03-13 15:00:00 17.9 7 Oeste 22 Noroeste 0 984.9 -2.1 60
2020-03-13 14:00:00 15.7 8 Oeste 19 Sudoeste 0 985.9 -1 71
2020-03-13 13:00:00 13.9 7 Oeste 17 Oeste 0 986.6 0 83
2020-03-13 12:00:00 12.5 7 Oeste 15 Oeste 0 987 1 89
2020-03-13 11:00:00 11.3 6 Oeste 14 Oeste 0 986.9 1.3 95
2020-03-13 10:00:00 10.5 8 Oeste 17 Oeste 0 986.6 1.6 96
2020-03-13 09:00:00 10 7 Sudoeste 14 Oeste 0 986 1.1 95
2020-03-13 08:00:00 10 3 Oeste 12 Oeste 0 985.6 1 93
2020-03-13 07:00:00 10.3 5 Sudoeste 12 Sur 0 985 0.6 91
2020-03-13 06:00:00 10.9 4 Sur 14 Sudoeste 0 984.9 0 85
2020-03-13 05:00:00 12.6 9 Sudoeste 19 Oeste 0 984.6 -0.6 81
2020-03-13 04:00:00 13.1 6 Sudoeste 11 Oeste 0 984.4 -1 77
2020-03-13 03:00:00 13.5 3 Sudoeste 9 Sudoeste 0 984.9 -0.8 76
2020-03-13 02:00:00 14.4 4 Sur 8 Sur 0 985.2 -0.5 70
2020-03-13 01:00:00 14.8 3 Sur 14 Sudoeste 0 985.4 -0.1 64
2020-03-13 00:00:00 16.1 8 Sur 11 Sur 0 985.7 0.6 62
2020-03-12 23:00:00 16.7 5 Sudoeste 10 Oeste 0 985.7 1.2 59
2020-03-12 22:00:00 18.2 5 Sudoeste 13 Oeste 0 985.5 1.3 53
2020-03-12 21:00:00 19.5 4 Oeste 16 Oeste 0 985.1 1.3 49
2020-03-12 20:00:00 21.3 9 Oeste 23 Oeste 0 984.5 1 44
2020-03-12 19:00:00 23 6 Oeste 22 Oeste 0 984.2 0.4 37
2020-03-12 18:00:00 24.9 9 Oeste 26 Oeste 0 983.8 -0.8 30
2020-03-12 17:00:00 28.1 14 Sudoeste 30 Sudoeste 0 983.5 -2 21
2020-03-12 16:00:00 27.7 9 Oeste 27 Oeste 0 983.8 -2.7 20
2020-03-12 15:00:00 27.4 11 Sudoeste 25 Oeste 0 984.6 -2.4 20
2020-03-12 14:00:00 26.5 10 Sur 23 Sudoeste 0 985.5 -1.9 23
2020-03-12 13:00:00 26.3 4 Noroeste 13 Norte 0 986.5 -1.1 26
2020-03-12 12:00:00 23.7 5 Nordeste 10 Nordeste 0 987 -0.1 36
2020-03-12 11:00:00 18.7 4 Nordeste 9 Nordeste 0 987.4 0.7 48
2020-03-12 10:00:00 14.1 2 Norte 9 Norte 0 987.6 1 66
2020-03-12 09:00:00 12.1 3 Oeste 9 Este 0 987.1 0.6 73
2020-03-12 08:00:00 10.5 0 Calma 7 Sudeste 0 986.7 0.2 80
2020-03-12 07:00:00 10.3 4 Sudeste 8 Sudeste 0 986.6 0 77
2020-03-12 06:00:00 10.1 6 Sudeste 11 Oeste 0 986.5 -0.7 79
2020-03-12 05:00:00 10.6 8 Oeste 16 Noroeste 0 986.5 -1.1 76
2020-03-12 04:00:00 13.2 6 Este 12 Este 0 986.6 -1 74
2020-03-12 03:00:00 12.7 2 Sur 6 Nordeste 0 987.2 -0.9 74
2020-03-12 02:00:00 13.5 2 Norte 9 Sudoeste 0 987.6 -0.5 71
2020-03-12 01:00:00 16.3 5 Este 10 Este 0 987.6 -0.4 60
2020-03-12 00:00:00 15.8 3 Oeste 6 Noroeste 0 988.1 0.1 60
2020-03-11 23:00:00 17.6 2 Sur 12 Sudeste 0 988.1 0.1 53
2020-03-11 22:00:00 18.8 9 Sudeste 12 Sudeste 0 988 0 51
2020-03-11 21:00:00 20.7 2 Sur 8 Nordeste 0 988 0 45
2020-03-11 20:00:00 22.9 4 Nordeste 12 Nordeste 0 988 -0.2 40
2020-03-11 19:00:00 24.4 6 Nordeste 15 Nordeste 0 988 -0.5 33
2020-03-11 18:00:00 25.8 6 Nordeste 17 Norte 0 988 -1.2 31
2020-03-11 17:00:00 26.8 5 Nordeste 21 Nordeste 0 988.2 -2 28
2020-03-11 16:00:00 27.4 8 Nordeste 17 Nordeste 0 988.5 -2.4 26
2020-03-11 15:00:00 27.4 8 Este 19 Nordeste 0 989.2 -2.3 27
2020-03-11 14:00:00 25.9 6 Nordeste 15 Nordeste 0 990.2 -1.8 29
2020-03-11 13:00:00 24.5 5 Nordeste 13 Nordeste 0 990.9 -1.1 31
2020-03-11 12:00:00 22 5 Nordeste 12 Nordeste 0 991.5 -0.3 40
2020-03-11 11:00:00 19 4 Nordeste 10 Nordeste 0 992 0.4 48
2020-03-11 10:00:00 15.7 2 Nordeste 13 Nordeste 0 992 0.7 58
2020-03-11 09:00:00 11 4 Sudeste 9 Sudeste 0 991.8 0.8 71
2020-03-11 08:00:00 8 2 Este 7 Noroeste 0 991.6 0.4 82
2020-03-11 07:00:00 8.5 2 Oeste 4 Noroeste 0 991.3 -0.1 79
2020-03-11 06:00:00 9.6 2 Este 5 Este 0 991 -0.9 76
2020-03-11 05:00:00 9.8 0 Calma 4 Sudeste 0 991.2 -1.1 74
2020-03-11 04:00:00 10.6 2 Noroeste 5 Norte 0 991.4 -1.3 74
2020-03-11 03:00:00 11.4 4 Norte 7 Norte 0 991.9 -1 68
2020-03-11 02:00:00 12.4 6 Sudeste 9 Sudeste 0 992.3 -0.7 59
2020-03-11 01:00:00 13.2 5 Sudeste 8 Sur 0 992.7 0 56
2020-03-11 00:00:00 14.2 3 Nordeste 5 Norte 0 992.9 0.4 54
2020-03-10 23:00:00 15.5 0 Calma 12 Sudeste 0 993 0.7 51
2020-03-10 22:00:00 16.5 6 Sudeste 10 Sudeste 0 992.7 0.6 44
2020-03-10 21:00:00 18.8 0 Calma 4 Este 0 992.5 0.4 40
2020-03-10 20:00:00 21.2 2 Norte 7 Noroeste 0 992.3 -0.1 31
2020-03-10 19:00:00 23.9 3 Norte 10 Nordeste 0 992.1 -0.7 25
2020-03-10 18:00:00 25 5 Nordeste 11 Nordeste 0 992.1 -1.4 23
2020-03-10 17:00:00 25.6 4 Norte 9 Nordeste 0 992.4 -1.7 21
2020-03-10 16:00:00 25.4 5 Este 13 Nordeste 0 992.8 -2.2 21
2020-03-10 15:00:00 24.5 5 Nordeste 13 Norte 0 993.5 -1.7 24
2020-03-10 14:00:00 22.8 4 Norte 13 Nordeste 0 994.1 -1.3 27
2020-03-10 13:00:00 21.3 6 Nordeste 13 Nordeste 0 995 -0.2 30
2020-03-10 12:00:00 18.2 5 Norte 9 Norte 0 995.2 0.4 39
2020-03-10 11:00:00 15.6 4 Este 7 Nordeste 0 995.4 0.8 47
2020-03-10 10:00:00 13 2 Sudoeste 7 Sudoeste 0 995.2 0.9 55
2020-03-10 09:00:00 8.4 0 Calma 6 Norte 0 994.8 1 74
2020-03-10 08:00:00 6 3 Oeste 9 Sudoeste 0 994.6 0.4 76
2020-03-10 07:00:00 6.8 2 Norte 14 Sur 0 994.3 0.4 74
2020-03-10 06:00:00 7.7 6 Sudeste 8 Sudeste 0 993.8 -0.4 69
2020-03-10 05:00:00 7.7 2 Nordeste 10 Sudeste 0 994.2 0.1 68
2020-03-10 04:00:00 8.6 3 Sudoeste 7 Sudoeste 0 993.9 -0.2 65
2020-03-10 03:00:00 9.3 2 Nordeste 7 Sur 0 994.2 0.1 63
2020-03-10 02:00:00 10.5 3 Sur 10 Sudoeste 0 994.1 0.2 57
2020-03-10 01:00:00 11.3 6 Sudoeste 12 Sudoeste 0 994.1 0.6 53
2020-03-10 00:00:00 11.7 4 Sudoeste 12 Sudoeste 0 994.1 0.8 53
2020-03-09 23:00:00 12.5 5 Sudoeste 12 Sudoeste 0 993.9 1.2 46
2020-03-09 22:00:00 13.1 5 Sur 9 Sudoeste 0 993.5 0.8 44
2020-03-09 21:00:00 14.6 3 Sur 9 Noroeste 0 993.3 1 42
2020-03-09 20:00:00 17 3 Oeste 15 Noroeste 0 992.7 -0.2 34
2020-03-09 19:00:00 19.1 9 Noroeste 21 Noroeste 0 992.7 -0.5 27
2020-03-09 18:00:00 19.9 9 Noroeste 23 Norte 0 992.3 -1.2 27
2020-03-09 17:00:00 20.9 8 Noroeste 23 Norte 0 992.9 -1.4 26
2020-03-09 16:00:00 20.9 9 Noroeste 20 Noroeste 0 993.2 -2 26
2020-03-09 15:00:00 20.2 6 Norte 26 Noroeste 0 993.5 -2 30
2020-03-09 14:00:00 18.8 6 Noroeste 21 Noroeste 0 994.3 -1.4 34
2020-03-09 13:00:00 16.2 8 Noroeste 22 Oeste 0 995.2 0 48
2020-03-09 12:00:00 14.4 10 Oeste 23 Sudoeste 0 995.5 0.5 59
2020-03-09 11:00:00 12.5 9 Oeste 25 Oeste 0 995.7 1.3 70
2020-03-09 10:00:00 9.9 10 Oeste 24 Sudoeste 0 995.2 0.5 94
2020-03-09 09:00:00 8.4 12 Oeste 26 Sudoeste 0 995 0.7 97
2020-03-09 08:00:00 7.5 15 Sudoeste 27 Sudoeste 0 994.4 0.2 96
2020-03-09 07:00:00 7.9 10 Sudoeste 19 Sudoeste 0 994.7 0.7 95
2020-03-09 06:00:00 8.1 8 Sur 17 Sudoeste 0 994.3 -0.4 94
2020-03-09 05:00:00 8.3 7 Sur 17 Sur 0 994.2 -0.7 93
2020-03-09 04:00:00 8.1 9 Sur 16 Sur 0 994 -0.8 90
2020-03-09 03:00:00 8.2 8 Sudoeste 15 Sudoeste 0 994.7 0.1 85
2020-03-09 02:00:00 9.9 6 Oeste 20 Oeste 0 994.9 0.1 78
2020-03-09 01:00:00 10 10 Sudoeste 19 Oeste 0 994.8 -0.1 76
2020-03-09 00:00:00 9.9 7 Sudoeste 14 Sudoeste 0 994.6 0.1 77
2020-03-08 23:00:00 11.1 6 Sudoeste 12 Sudoeste 0 994.8 1 73
2020-03-08 22:00:00 12.4 4 Sudoeste 12 Oeste 0 994.9 2 65
2020-03-08 21:00:00 13.2 4 Oeste 15 Noroeste 0 994.5 1.6 63
2020-03-08 20:00:00 14.9 7 Oeste 19 Oeste 0 993.8 0.6 52
2020-03-08 19:00:00 17.3 8 Oeste 19 Sudoeste 0 992.9 -0.1 42
2020-03-08 18:00:00 17.9 9 Oeste 23 Oeste 0 992.9 -0.3 40
2020-03-08 17:00:00 18.9 10 Oeste 22 Sudoeste 0 993.2 -0.6 32
2020-03-08 16:00:00 18.8 10 Oeste 31 Oeste 0 993 -1.8 31
2020-03-08 15:00:00 19.1 12 Noroeste 24 Noroeste 0 993.2 -1.9 30
2020-03-08 14:00:00 18.2 9 Oeste 21 Noroeste 0 993.8 -1.6 33
2020-03-08 13:00:00 17 7 Oeste 17 Sudoeste 0 994.8 -0.2 41
2020-03-08 12:00:00 14.6 5 Sudoeste 15 Sudoeste 0 995.1 0.7 47
2020-03-08 11:00:00 11.1 4 Noroeste 12 Noroeste 0 995.4 1.5 57
2020-03-08 10:00:00 8.5 2 Norte 8 Norte 0 995 1.2 66
2020-03-08 09:00:00 4.9 2 Noroeste 11 Sudeste 0 994.4 1.3 77
2020-03-08 08:00:00 2.6 5 Sudeste 13 Sudeste 0 993.9 0.5 83
2020-03-08 07:00:00 3.7 0 Calma 8 Noroeste 0 993.8 -0.2 87
2020-03-08 06:00:00 4.6 3 Norte 12 Sudeste 0 993.1 -1 77
2020-03-08 05:00:00 3.9 7 Sudeste 9 Sudeste 0 993.4 -0.4 78
2020-03-08 04:00:00 5.5 3 Norte 8 Noroeste 0 994 -0.1 78
2020-03-08 03:00:00 6.6 5 Noroeste 10 Sudeste 0 994.1 -0.2 69
2020-03-08 02:00:00 7.4 2 Sudeste 12 Sudeste 0 993.8 -0.6 65
2020-03-08 01:00:00 7.9 9 Sudeste 13 Sudeste 0 994.1 -0.1 62
2020-03-08 00:00:00 8.6 8 Sur 11 Sudeste 0 994.3 0.5 59
2020-03-07 23:00:00 9.9 3 Sur 10 Sudeste 0 994.4 0.9 55
2020-03-07 22:00:00 11.3 4 Sur 10 Sur 0 994.2 1.2 50
2020-03-07 21:00:00 13 2 Oeste 6 Noroeste 0 993.8 1.2 48
2020-03-07 20:00:00 15 5 Noroeste 13 Noroeste 0 993.5 0.5 37
2020-03-07 19:00:00 17.3 5 Noroeste 12 Noroeste 0 993 -0.2 30
2020-03-07 18:00:00 18.3 5 Norte 15 Sudoeste 0 992.6 -1 28
2020-03-07 17:00:00 18.9 5 Nordeste 12 Nordeste 0 993 -1.5 26
2020-03-07 16:00:00 19.4 6 Este 15 Nordeste 0 993.2 -2.1 25
2020-03-07 15:00:00 18 6 Nordeste 18 Nordeste 0 993.6 -2 26
2020-03-07 14:00:00 17.4 5 Nordeste 15 Sudeste 0 994.5 -1.2 28
2020-03-07 13:00:00 16.3 5 Nordeste 13 Este 0 995.3 -0.1 31
2020-03-07 12:00:00 14.1 5 Norte 11 Norte 0 995.6 0.6 40
2020-03-07 11:00:00 12.9 3 Sur 7 Sudeste 0 995.7 1.2 45
2020-03-07 10:00:00 10.2 3 Sudeste 6 Sudeste 0 995.4 1.2 54
2020-03-07 09:00:00 6.5 4 Norte 9 Noroeste 0 995 1.4 65
2020-03-07 08:00:00 4.6 5 Oeste 10 Oeste 0 994.5 0.8 71
2020-03-07 07:00:00 5.2 0 Calma 6 Norte 0 994.2 0.5 68
2020-03-07 06:00:00 5.8 3 Norte 8 Noroeste 0 993.6 -0.4 63
2020-03-07 05:00:00 6.8 3 Noroeste 12 Noroeste 0 993.7 0 59
2020-03-07 04:00:00 7.4 6 Noroeste 14 Noroeste 0 993.7 0.1 56
2020-03-07 03:00:00 8.6 8 Noroeste 24 Sudoeste 0 994 1 53
2020-03-07 02:00:00 9.3 4 Sudeste 19 Noroeste 0 993.7 0.9 51
2020-03-07 01:00:00 9.3 3 Noroeste 21 Noroeste 0 993.6 1.6 52
2020-03-07 00:00:00 10.5 7 Noroeste 19 Noroeste 0 993 2 48
2020-03-06 23:00:00 11.2 6 Noroeste 14 Norte 0 992.8 2 45
2020-03-06 22:00:00 12.5 13 Noroeste 35 Norte 0 992 2 41
2020-03-06 21:00:00 12.6 18 Noroeste 32 Noroeste 0 991 1.4 42
2020-03-06 20:00:00 13.4 13 Noroeste 36 Noroeste 0 990.8 1.3 40
2020-03-06 19:00:00 14.8 19 Noroeste 40 Noroeste 0 990 0.1 34
2020-03-06 18:00:00 15.9 18 Noroeste 42 Noroeste 0 989.6 -0.4 31
2020-03-06 17:00:00 16.6 18 Noroeste 40 Noroeste 0 989.5 -1 31
2020-03-06 16:00:00 16.1 22 Noroeste 44 Noroeste 0 989.9 -1.2 31
2020-03-06 15:00:00 16.2 19 Noroeste 42 Noroeste 0 990 -0.9 33
2020-03-06 14:00:00 15.1 16 Noroeste 42 Noroeste 0 990.5 0 37
2020-03-06 13:00:00 15 19 Noroeste 38 Noroeste 0 991.1 0.7 38
2020-03-06 12:00:00 13.9 18 Noroeste 37 Noroeste 0 990.9 1.4 41
2020-03-06 11:00:00 12.8 17 Noroeste 37 Noroeste 0 990.5 1.8 47
2020-03-06 10:00:00 11.6 13 Oeste 33 Oeste 0 990.4 2.1 75
2020-03-06 09:00:00 10 13 Oeste 32 Oeste 0 989.5 1.5 84
2020-03-06 08:00:00 9.6 14 Oeste 37 Oeste 0 988.7 0.7 88
2020-03-06 07:00:00 8.8 12 Oeste 31 Oeste 0 988.3 -0.1 91
2020-03-06 06:00:00 7.9 14 Oeste 35 Oeste 0 988 -0.8 92
2020-03-06 05:00:00 7.6 13 Oeste 36 Oeste 0 988 -1 91
2020-03-06 04:00:00 7.5 13 Oeste 27 Sudoeste 0 988.4 -0.4 91
2020-03-06 03:00:00 7.8 10 Oeste 29 Oeste 0 988.8 0.2 88
2020-03-06 02:00:00 8 8 Sudoeste 24 Oeste 0 989 0.7 86
2020-03-06 01:00:00 8.5 10 Oeste 25 Oeste 0 988.8 1.1 82
2020-03-06 00:00:00 9.1 11 Oeste 23 Oeste 0 988.6 1.6 77
2020-03-05 23:00:00 10.1 5 Oeste 23 Oeste 0 988.3 2 70
2020-03-05 22:00:00 11.2 9 Oeste 27 Oeste 0 987.7 2.1 65
2020-03-05 21:00:00 12.6 11 Oeste 24 Sudoeste 0 987 2 59
2020-03-05 20:00:00 13.8 10 Oeste 33 Oeste 0 986.3 1.7 59
2020-03-05 19:00:00 15.4 15 Oeste 46 Oeste 0 985.6 1.1 51
2020-03-05 18:00:00 17.1 14 Oeste 45 Noroeste 0 985 0.1 47
2020-03-05 17:00:00 16.9 14 Oeste 44 Sudoeste 0 984.6 -1 42
2020-03-05 16:00:00 17.5 18 Oeste 42 Oeste 0 984.5 -1.2 38
2020-03-05 15:00:00 17.8 17 Oeste 44 Noroeste 0 984.9 -0.7 41
2020-03-05 14:00:00 16.4 18 Oeste 45 Noroeste 0 985.6 0.6 47
2020-03-05 13:00:00 16 16 Oeste 43 Oeste 0 985.7 1 51
2020-03-05 12:00:00 14.5 13 Oeste 47 Oeste 0 985.6 0.8 71
2020-03-05 11:00:00 13.3 22 Sudoeste 42 Sudoeste 0 985 0.4 86
2020-03-05 10:00:00 13.8 18 Sudoeste 37 Sudoeste 0 984.7 -0.3 78
2020-03-05 09:00:00 12.7 12 Sudoeste 25 Sudoeste 0 984.8 -0.6 89
2020-03-05 08:00:00 12.4 14 Sudoeste 30 Sudoeste 0 984.6 -1 91
2020-03-05 07:00:00 12.7 9 Oeste 22 Oeste 0 985 -1.4 89
2020-03-05 06:00:00 13 10 Oeste 19 Oeste 0 985.4 -1.5 89
2020-03-05 05:00:00 13.1 13 Oeste 29 Oeste 0 985.6 -2.1 87
2020-03-05 04:00:00 13.1 12 Oeste 26 Sudoeste 0 986.4 -1.6 89
2020-03-05 03:00:00 13.5 13 Sudoeste 26 Oeste 0 986.9 -1.6 88
2020-03-05 02:00:00 13.4 10 Oeste 21 Oeste 0 987.7 -1.1 86
2020-03-05 01:00:00 13.7 8 Sudoeste 14 Sudoeste 0 988 -1 82
2020-03-05 00:00:00 13.9 5 Oeste 13 Sudoeste 0 988.5 -0.6 78